Alzada, Montana
Current Conditions -  °F | °C
As of 4:55 PM on Friday 19 Dec 2014 (Local Time) from KSPF Reporting Station
Clear Clear  
Wind Chill: 36°   Ceiling: Unl
Heat Index: 36°   Visibility: 10mi
Dew Point: 19°   Wind: 3mph
Humidity: 52%   Direction: 250°WSW
Pressure: 29.91"   Gusts: NA
Location:  45.03°N, 104.42°W
Report Text: KSPF 192355Z AUTO 25003KT 10SM CLR 02/M07 A2991 RMK AO2
Loading
Personal Weather Stations






























Interactive Weather Map New forecast layout! Learn more

10-Day Weather Forecast

Advertisements
Track Severe Weather on mobile